Terminal Aerodrome Forecast
Issued by NWS Billings, MT

Home | Current Version | Previous Version | Text Only | Print | Product List | Glossary On
Versions: 1 2 3 4 5 6 7 8 9 10 11 12 13
000
FTUS45 KBYZ 300521
TAFMLS
TAF
KMLS 300521Z 3006/3106 12007KT P6SM FEW120 WS014/16039KT
     FM301500 15014KT P6SM FEW120
     FM310200 12010KT P6SM FEW120=

USA.gov is the U.S. government's official web portal to all federal, state and local government web resources and services.